Time;durP1;ratioP1;P1;durP2;ratioP2;P2;SDS_P1;SDS_P2;PMS_P1;PMS_P2;Temp;Humidity;BMP_temperature;BMP_pressure;BME280_temperature;BME280_humidity;BME280_pressure;Samples;Min_cycle;Max_cycle;Signal;HPM_P1;HPM_P2
2022/03/01 00:01:23;;;;;;;17.70;13.00;;;3.10;99.90;;;;;;5076562;28;20570;-70
2022/03/01 00:03:50;;;;;;;17.50;13.07;;;3.00;99.90;;;;;;5076160;28;20576;-70
2022/03/01 00:06:16;;;;;;;15.00;12.07;;;3.00;99.90;;;;;;5076416;28;20219;-70
2022/03/01 00:08:42;;;;;;;15.18;11.93;;;2.90;99.90;;;;;;5075128;28;20207;-71
2022/03/01 00:11:08;;;;;;;16.70;13.20;;;2.80;99.90;;;;;;5075136;28;20196;-71
2022/03/01 00:13:36;;;;;;;16.10;13.38;;;2.80;99.90;;;;;;5075164;28;20198;-70
2022/03/01 00:16:03;;;;;;;15.57;12.07;;;2.80;99.90;;;;;;5076029;28;20261;-70
2022/03/01 00:18:29;;;;;;;18.38;12.95;;;2.70;99.90;;;;;;5076216;28;20208;-69
2022/03/01 00:20:56;;;;;;;16.02;12.50;;;2.70;99.90;;;;;;5076347;28;20204;-70
2022/03/01 00:23:22;;;;;;;15.98;11.27;;;2.70;99.90;;;;;;5075164;28;20200;-69
2022/03/01 00:25:48;;;;;;;14.27;11.77;;;2.70;99.90;;;;;;5076355;28;20227;-70
2022/03/01 00:28:14;;;;;;;15.82;11.80;;;2.60;99.90;;;;;;5075043;28;20556;-70
2022/03/01 00:30:41;;;;;;;15.98;12.05;;;2.60;99.90;;;;;;5076221;28;20200;-69
2022/03/01 00:33:07;;;;;;;15.85;11.57;;;2.60;99.90;;;;;;5074822;28;20249;-69
2022/03/01 00:35:34;;;;;;;15.63;11.82;;;2.60;99.90;;;;;;5075013;28;20565;-69
2022/03/01 00:38:00;;;;;;;18.75;12.63;;;2.60;99.90;;;;;;5075539;28;20208;-70
2022/03/01 00:40:27;;;;;;;18.20;12.73;;;2.50;99.90;;;;;;5076179;28;20208;-69
2022/03/01 00:42:53;;;;;;;17.92;12.35;;;2.40;99.90;;;;;;5074822;28;20671;-69
2022/03/01 00:45:19;;;;;;;18.35;11.82;;;2.40;99.90;;;;;;5076435;28;20234;-71
2022/03/01 00:47:47;;;;;;;18.45;11.43;;;2.30;99.90;;;;;;5075230;28;20207;-69
2022/03/01 00:50:14;;;;;;;15.13;12.05;;;2.20;99.90;;;;;;5076093;28;20215;-70
2022/03/01 00:52:40;;;;;;;16.63;12.27;;;2.20;99.90;;;;;;5076595;28;20223;-70
2022/03/01 00:55:07;;;;;;;17.15;12.98;;;2.20;99.90;;;;;;5076261;28;20211;-70
2022/03/01 00:57:34;;;;;;;13.35;11.18;;;2.20;99.90;;;;;;5076285;28;20208;-70
2022/03/01 01:00:00;;;;;;;22.65;12.35;;;2.20;99.90;;;;;;5076049;28;20200;-70
2022/03/01 01:02:28;;;;;;;15.57;11.57;;;2.20;99.90;;;;;;5075148;28;20626;-71
2022/03/01 01:04:54;;;;;;;16.20;12.57;;;2.10;99.90;;;;;;5074403;28;20738;-70
2022/03/01 01:07:21;;;;;;;15.70;11.93;;;2.10;99.90;;;;;;5075579;28;20595;-72
2022/03/01 01:09:48;;;;;;;16.00;12.05;;;2.00;99.90;;;;;;5076053;28;20204;-70
2022/03/01 01:12:14;;;;;;;12.82;10.50;;;2.00;99.90;;;;;;5075808;28;20203;-70
2022/03/01 01:14:41;;;;;;;16.70;11.40;;;2.10;99.90;;;;;;5075615;28;20254;-70
2022/03/01 01:17:07;;;;;;;15.20;11.55;;;2.10;99.90;;;;;;5075193;28;20566;-70
2022/03/01 01:19:34;;;;;;;23.27;10.70;;;2.10;99.90;;;;;;5075653;28;20208;-71
2022/03/01 01:24:45;;;;;;;13.38;10.32;;;2.10;99.90;;;;;;5075525;28;20195;-70
2022/03/01 01:27:12;;;;;;;13.63;12.23;;;2.10;99.90;;;;;;5075576;28;20192;-71
2022/03/01 01:29:38;;;;;;;13.40;10.63;;;2.00;99.90;;;;;;5075061;28;20200;-70
2022/03/01 01:32:05;;;;;;;13.00;10.90;;;2.00;99.90;;;;;;5075306;28;20204;-71
2022/03/01 01:34:32;;;;;;;14.75;10.27;;;2.00;99.90;;;;;;5073796;28;20233;-70
2022/03/01 01:36:58;;;;;;;12.43;9.80;;;2.00;99.90;;;;;;5075066;28;20741;-70
2022/03/01 01:39:24;;;;;;;13.60;10.32;;;2.00;99.90;;;;;;5075423;28;20268;-70
2022/03/01 01:41:51;;;;;;;14.05;10.23;;;2.00;99.90;;;;;;5075494;28;20208;-70
2022/03/01 01:44:17;;;;;;;12.98;10.07;;;2.00;99.90;;;;;;5074772;28;20204;-69
2022/03/01 01:46:44;;;;;;;15.90;9.98;;;2.10;99.90;;;;;;5075032;28;20223;-70
2022/03/01 01:49:10;;;;;;;13.60;10.35;;;2.10;99.90;;;;;;5075432;28;20200;-71
2022/03/01 01:51:37;;;;;;;14.20;10.93;;;2.10;99.90;;;;;;5074884;28;20229;-70
2022/03/01 01:54:04;;;;;;;12.70;10.80;;;2.10;99.90;;;;;;5074061;28;20195;-70
2022/03/01 01:56:31;;;;;;;18.08;10.52;;;2.10;99.90;;;;;;5075235;28;20204;-70
2022/03/01 01:58:57;;;;;;;13.77;9.75;;;2.10;99.90;;;;;;5074682;28;20208;-70
2022/03/01 02:01:24;;;;;;;12.50;10.48;;;2.10;99.90;;;;;;5074826;28;20203;-70
2022/03/01 02:03:51;;;;;;;14.73;10.43;;;2.00;99.90;;;;;;5072943;28;20200;-70
2022/03/01 02:06:17;;;;;;;15.55;10.32;;;2.00;99.90;;;;;;5073577;28;20234;-70
2022/03/01 02:08:44;;;;;;;12.80;9.95;;;1.80;99.90;;;;;;5074257;28;20590;-70
2022/03/01 02:11:10;;;;;;;15.30;10.00;;;1.80;99.90;;;;;;5075360;28;20219;-70
2022/03/01 02:13:36;;;;;;;14.20;10.07;;;1.70;99.90;;;;;;5072833;28;20207;-70
2022/03/01 02:16:03;;;;;;;15.80;10.98;;;1.60;99.90;;;;;;5074883;28;20200;-70
2022/03/01 02:18:30;;;;;;;18.80;11.55;;;1.40;99.90;;;;;;5074442;28;20200;-70
2022/03/01 02:20:56;;;;;;;13.85;10.98;;;1.30;99.90;;;;;;5074744;28;20204;-70
2022/03/01 02:23:22;;;;;;;20.40;11.75;;;1.30;99.90;;;;;;5073749;28;20248;-70
2022/03/01 02:25:49;;;;;;;13.43;10.13;;;1.20;99.90;;;;;;5074567;28;20215;-70
2022/03/01 02:28:15;;;;;;;13.98;10.68;;;1.30;99.90;;;;;;5074495;28;20574;-70
2022/03/01 02:30:42;;;;;;;14.90;10.20;;;1.40;99.90;;;;;;5074857;28;20204;-71
2022/03/01 02:33:08;;;;;;;13.73;11.07;;;1.40;99.90;;;;;;5074256;28;20250;-70
2022/03/01 02:35:34;;;;;;;17.42;11.20;;;1.40;99.90;;;;;;5074585;28;20207;-70
2022/03/01 02:38:01;;;;;;;13.32;10.18;;;1.40;99.90;;;;;;5074086;28;20208;-70
2022/03/01 02:40:28;;;;;;;16.80;9.98;;;1.40;99.90;;;;;;5074061;28;20223;-70
2022/03/01 02:42:54;;;;;;;17.13;10.82;;;1.30;99.90;;;;;;5074523;28;20256;-70
2022/03/01 02:45:21;;;;;;;12.85;10.00;;;1.20;99.90;;;;;;5074319;28;20253;-70
2022/03/01 02:47:48;;;;;;;14.95;11.35;;;1.20;99.90;;;;;;5074358;28;20560;-69
2022/03/01 02:50:16;;;;;;;14.27;9.63;;;1.20;99.90;;;;;;5074064;28;20231;-70
2022/03/01 02:52:43;;;;;;;16.35;12.00;;;1.20;99.90;;;;;;5073938;28;20253;-70
2022/03/01 02:55:11;;;;;;;15.85;11.27;;;1.10;99.90;;;;;;5073734;28;20210;-70
2022/03/01 02:57:37;;;;;;;14.63;11.52;;;1.10;99.90;;;;;;5073682;28;20566;-70
2022/03/01 03:00:06;;;;;;;15.05;10.32;;;1.00;99.90;;;;;;5073367;28;20691;-70
2022/03/01 03:02:32;;;;;;;15.25;11.00;;;0.90;99.90;;;;;;5073831;28;20196;-70
2022/03/01 03:04:59;;;;;;;16.77;11.82;;;0.80;99.90;;;;;;5072205;28;20224;-70
2022/03/01 03:07:26;;;;;;;16.20;11.25;;;0.80;99.90;;;;;;5072104;28;20232;-70
2022/03/01 03:09:52;;;;;;;15.32;10.38;;;0.60;99.90;;;;;;5071982;28;20207;-69
2022/03/01 03:12:18;;;;;;;17.40;11.88;;;0.50;99.90;;;;;;5073407;28;20737;-69
2022/03/01 03:14:45;;;;;;;18.52;11.05;;;0.40;99.90;;;;;;5073962;28;20269;-69
2022/03/01 03:17:11;;;;;;;22.30;11.15;;;0.40;99.90;;;;;;5073702;28;20215;-69
2022/03/01 03:19:38;;;;;;;17.55;9.75;;;0.40;99.90;;;;;;5073345;28;20206;-70
2022/03/01 03:22:05;;;;;;;16.52;11.18;;;0.40;99.90;;;;;;5073863;28;20253;-70
2022/03/01 03:24:32;;;;;;;16.95;11.27;;;0.40;99.90;;;;;;5076115;28;20206;-70
2022/03/01 03:26:58;;;;;;;16.33;12.05;;;0.40;99.90;;;;;;5077328;28;20289;-69
2022/03/01 03:29:25;;;;;;;19.95;11.48;;;0.30;99.90;;;;;;5077537;28;20211;-69
2022/03/01 03:31:56;;;;;;;15.27;10.60;;;0.30;99.90;;;;;;5075936;28;20195;-69
2022/03/01 03:34:24;;;;;;;18.70;10.88;;;0.30;99.90;;;;;;5077467;28;20211;-69
2022/03/01 03:36:51;;;;;;;19.27;12.25;;;0.30;99.90;;;;;;5077105;28;20207;-70
2022/03/01 03:39:17;;;;;;;19.70;10.90;;;0.20;99.90;;;;;;5077179;28;20204;-69
2022/03/01 03:41:43;;;;;;;18.95;10.43;;;0.30;99.90;;;;;;5077223;28;20200;-69
2022/03/01 03:44:10;;;;;;;17.73;11.45;;;0.30;99.90;;;;;;5076939;28;20208;-69
2022/03/01 03:46:36;;;;;;;16.50;11.50;;;0.40;99.90;;;;;;5077457;28;20222;-70
2022/03/01 03:49:03;;;;;;;17.13;11.05;;;0.40;99.90;;;;;;5077105;28;20604;-70
2022/03/01 03:51:30;;;;;;;16.73;10.25;;;0.40;99.90;;;;;;5075864;28;20203;-70
2022/03/01 03:53:57;;;;;;;15.35;10.65;;;0.40;99.90;;;;;;5077300;28;20208;-70
2022/03/01 03:56:23;;;;;;;19.30;11.52;;;0.30;99.90;;;;;;5076865;28;20567;-69
2022/03/01 03:58:50;;;;;;;16.70;10.95;;;0.20;99.90;;;;;;5076914;28;20200;-69
2022/03/01 04:01:17;;;;;;;17.25;11.10;;;0.20;99.90;;;;;;5076349;28;20204;-70
2022/03/01 04:03:43;;;;;;;16.88;11.30;;;0.20;99.90;;;;;;5076601;28;20249;-70
2022/03/01 04:06:10;;;;;;;16.65;11.18;;;0.10;99.90;;;;;;5076867;28;20698;-70
2022/03/01 04:08:36;;;;;;;16.73;11.93;;;0.10;99.90;;;;;;5077258;28;20214;-70
2022/03/01 04:11:03;;;;;;;20.08;10.38;;;0.00;99.90;;;;;;5076978;28;20261;-70
2022/03/01 04:13:29;;;;;;;18.10;10.05;;;0.10;99.90;;;;;;5077114;28;20258;-70
2022/03/01 04:15:55;;;;;;;19.23;12.07;;;0.10;99.90;;;;;;5076464;28;20584;-70
2022/03/01 04:18:22;;;;;;;17.95;11.48;;;0.20;99.90;;;;;;5076973;28;20200;-70
2022/03/01 04:20:48;;;;;;;19.17;10.40;;;0.10;99.90;;;;;;5076799;28;20204;-70
2022/03/01 04:23:15;;;;;;;17.08;12.27;;;0.00;99.90;;;;;;5076594;28;20248;-70
2022/03/01 04:25:41;;;;;;;20.25;11.48;;;0.00;99.90;;;;;;5076550;28;20195;-70
2022/03/01 04:28:08;;;;;;;17.13;10.55;;;-0.10;99.90;;;;;;5076453;28;20200;-70
2022/03/01 04:30:35;;;;;;;22.00;11.07;;;-0.20;99.90;;;;;;5076858;28;20196;-69
2022/03/01 04:33:01;;;;;;;17.08;11.30;;;-0.30;99.90;;;;;;5076828;28;20211;-70
2022/03/01 04:35:28;;;;;;;16.58;10.13;;;-0.30;99.90;;;;;;5075790;28;20265;-70
2022/03/01 04:37:55;;;;;;;20.25;11.10;;;-0.30;99.90;;;;;;5076177;28;20720;-70
2022/03/01 04:40:21;;;;;;;17.90;12.25;;;-0.30;99.90;;;;;;5076160;28;20222;-69
2022/03/01 04:42:49;;;;;;;19.52;11.13;;;-0.30;99.90;;;;;;5076037;28;20214;-69
2022/03/01 04:45:16;;;;;;;20.00;11.00;;;-0.20;99.90;;;;;;5076224;28;20250;-69
2022/03/01 04:47:43;;;;;;;20.38;11.90;;;-0.20;99.90;;;;;;5076153;28;20660;-69
2022/03/01 04:50:10;;;;;;;18.58;11.30;;;-0.10;99.90;;;;;;5076043;28;20230;-69
2022/03/01 04:52:37;;;;;;;20.25;10.60;;;-0.10;99.90;;;;;;5074304;28;20203;-70
2022/03/01 04:55:04;;;;;;;22.63;11.93;;;-0.10;99.90;;;;;;5075309;28;20667;-70
2022/03/01 04:57:30;;;;;;;20.23;11.20;;;0.00;99.90;;;;;;5075323;28;20629;-70
2022/03/01 04:59:57;;;;;;;17.00;9.82;;;-0.10;99.90;;;;;;5074102;28;20207;-70
2022/03/01 05:02:23;;;;;;;19.83;11.20;;;-0.10;99.90;;;;;;5075304;28;20203;-70
2022/03/01 05:04:49;;;;;;;16.10;10.07;;;-0.10;99.90;;;;;;5075301;28;20240;-70
2022/03/01 05:07:18;;;;;;;14.73;10.25;;;-0.10;99.90;;;;;;5075242;28;20224;-70
2022/03/01 05:09:44;;;;;;;16.65;11.10;;;-0.10;99.90;;;;;;5073739;28;20317;-70
2022/03/01 05:12:11;;;;;;;17.80;11.07;;;-0.10;99.90;;;;;;5074909;28;20204;-71
2022/03/01 05:14:37;;;;;;;15.68;10.65;;;-0.10;99.90;;;;;;5074885;28;20196;-70
2022/03/01 05:17:04;;;;;;;21.15;11.50;;;-0.20;99.90;;;;;;5073435;28;20220;-70
2022/03/01 05:19:30;;;;;;;21.02;10.70;;;-0.10;99.90;;;;;;5075175;28;20195;-70
2022/03/01 05:21:58;;;;;;;20.35;12.00;;;-0.20;99.90;;;;;;5074779;28;20204;-70
2022/03/01 05:24:24;;;;;;;18.85;11.02;;;-0.20;99.90;;;;;;5073476;28;20610;-70
2022/03/01 05:26:51;;;;;;;14.20;9.82;;;-0.30;99.90;;;;;;5075147;28;20210;-70
2022/03/01 05:29:17;;;;;;;15.75;10.50;;;-0.30;99.90;;;;;;5074855;28;20200;-70
2022/03/01 05:31:43;;;;;;;18.35;11.25;;;-0.20;99.90;;;;;;5074463;28;20219;-70
2022/03/01 05:34:10;;;;;;;16.45;10.73;;;-0.20;99.90;;;;;;5074757;28;20261;-70
2022/03/01 05:36:36;;;;;;;17.60;11.25;;;-0.30;99.90;;;;;;5074501;28;20277;-70
2022/03/01 05:39:03;;;;;;;16.35;10.95;;;-0.30;99.90;;;;;;5073260;28;20199;-70
2022/03/01 05:41:29;;;;;;;14.65;10.82;;;-0.40;99.90;;;;;;5074675;28;20256;-70
2022/03/01 05:43:58;;;;;;;28.83;12.85;;;-0.40;99.90;;;;;;5074239;28;20562;-70
2022/03/01 05:46:24;;;;;;;18.95;11.85;;;-0.40;99.90;;;;;;5073088;28;20204;-70
2022/03/01 05:48:51;;;;;;;18.10;10.57;;;-0.40;99.90;;;;;;5073726;28;20207;-70
2022/03/01 05:51:18;;;;;;;19.25;13.10;;;-0.40;99.90;;;;;;5074302;28;20208;-70
2022/03/01 05:53:46;;;;;;;19.67;12.32;;;-0.50;99.90;;;;;;5074444;28;20199;-70
2022/03/01 05:56:13;;;;;;;18.52;10.85;;;-0.60;99.90;;;;;;5075268;28;20220;-70
2022/03/01 05:58:40;;;;;;;17.45;11.30;;;-0.70;99.90;;;;;;5073360;28;20207;-70
2022/03/01 06:01:06;;;;;;;18.60;10.25;;;-0.70;99.90;;;;;;5056788;28;20200;-70
2022/03/01 06:03:32;;;;;;;21.80;12.07;;;-0.80;99.90;;;;;;5074686;28;20200;-70
2022/03/01 06:05:59;;;;;;;19.90;12.75;;;-0.80;99.90;;;;;;5074122;28;20235;-70
2022/03/01 06:08:25;;;;;;;18.23;10.43;;;-0.80;99.90;;;;;;5074198;28;20234;-70
2022/03/01 06:10:51;;;;;;;17.52;10.77;;;-0.80;99.90;;;;;;5073741;28;20196;-70
2022/03/01 06:13:18;;;;;;;21.05;11.90;;;-0.90;99.90;;;;;;5073840;28;20222;-71
2022/03/01 06:15:44;;;;;;;19.17;11.30;;;-0.90;99.90;;;;;;5072759;28;20200;-70
2022/03/01 06:18:11;;;;;;;23.77;11.30;;;-0.90;99.90;;;;;;5055927;28;20227;-70
2022/03/01 06:20:38;;;;;;;17.60;10.07;;;-0.80;99.90;;;;;;5074050;28;20200;-70
2022/03/01 06:23:04;;;;;;;24.60;11.90;;;-0.80;99.90;;;;;;5073964;28;20192;-70
2022/03/01 06:25:31;;;;;;;19.65;11.25;;;-0.80;99.90;;;;;;5073685;28;20204;-69
2022/03/01 06:27:57;;;;;;;20.48;10.80;;;-0.70;99.90;;;;;;5074037;28;20207;-69
2022/03/01 06:30:24;;;;;;;18.23;11.57;;;-0.70;99.90;;;;;;5073098;28;20229;-69
2022/03/01 06:32:51;;;;;;;20.52;12.40;;;-0.80;99.90;;;;;;5073928;28;20204;-69
2022/03/01 06:35:17;;;;;;;21.65;11.88;;;-0.80;99.90;;;;;;5072514;28;20204;-69
2022/03/01 06:37:44;;;;;;;19.70;11.00;;;-0.80;99.90;;;;;;5073826;28;20227;-69
2022/03/01 06:40:12;;;;;;;22.52;12.30;;;-0.80;99.90;;;;;;5072258;28;20211;-69
2022/03/01 06:42:39;;;;;;;14.93;9.65;;;-0.70;99.90;;;;;;5073483;28;20207;-69
2022/03/01 06:45:06;;;;;;;19.50;12.85;;;-0.80;99.90;;;;;;5073423;28;20211;-70
2022/03/01 06:47:33;;;;;;;21.80;11.85;;;-0.80;99.90;;;;;;5073445;28;20625;-70
2022/03/01 06:50:00;;;;;;;20.88;11.40;;;-0.70;99.90;;;;;;5073465;28;20204;-70
2022/03/01 06:52:28;;;;;;;19.75;11.25;;;-0.70;99.90;;;;;;5073947;28;20253;-70
2022/03/01 06:54:55;;;;;;;20.10;11.65;;;-0.70;99.90;;;;;;5073723;28;20257;-70
2022/03/01 06:57:21;;;;;;;26.40;13.48;;;-0.60;99.90;;;;;;5073184;28;20212;-70
2022/03/01 06:59:48;;;;;;;15.98;9.63;;;-0.60;99.90;;;;;;5072597;28;20200;-70
2022/03/01 07:02:14;;;;;;;20.88;11.43;;;-0.50;99.90;;;;;;5072017;28;20208;-70
2022/03/01 07:04:41;;;;;;;17.77;10.07;;;-0.40;99.90;;;;;;5071933;28;20304;-70
2022/03/01 07:07:09;;;;;;;17.05;11.05;;;-0.30;99.90;;;;;;5073145;28;20219;-70
2022/03/01 07:09:36;;;;;;;19.27;12.82;;;-0.30;99.90;;;;;;5072898;28;20664;-70
2022/03/01 07:12:02;;;;;;;27.50;12.88;;;-0.30;99.90;;;;;;5073339;28;20207;-70
2022/03/01 07:14:29;;;;;;;19.58;11.30;;;-0.30;99.90;;;;;;5072847;28;20211;-70
2022/03/01 07:16:55;;;;;;;20.13;11.90;;;-0.20;99.90;;;;;;5073096;28;20220;-70
2022/03/01 07:19:22;;;;;;;17.35;11.25;;;-0.20;99.90;;;;;;5072884;28;20542;-70
2022/03/01 07:21:48;;;;;;;14.82;10.15;;;-0.20;99.90;;;;;;5072874;28;20200;-70
2022/03/01 07:24:15;;;;;;;23.88;11.68;;;-0.20;99.90;;;;;;5073150;28;20204;-70
2022/03/01 07:26:41;;;;;;;19.13;10.75;;;-0.10;99.90;;;;;;5073231;28;20196;-70
2022/03/01 07:29:07;;;;;;;23.60;11.20;;;0.00;99.90;;;;;;5073030;28;20203;-70
2022/03/01 07:31:35;;;;;;;23.33;11.40;;;0.10;99.90;;;;;;5072741;28;20207;-70
2022/03/01 07:34:03;;;;;;;21.13;12.02;;;0.20;99.90;;;;;;5072884;28;20200;-71
2022/03/01 07:36:29;;;;;;;20.52;12.32;;;0.30;99.90;;;;;;5073011;28;20266;-71
2022/03/01 07:38:56;;;;;;;25.13;13.23;;;0.30;99.90;;;;;;5072825;28;20200;-70
2022/03/01 07:41:22;;;;;;;15.57;9.82;;;0.40;99.90;;;;;;5073271;28;20596;-69
2022/03/01 07:43:48;;;;;;;19.20;11.73;;;0.50;99.90;;;;;;5072782;28;20258;-69
2022/03/01 07:46:15;;;;;;;20.30;11.52;;;0.60;99.90;;;;;;5072671;28;20660;-69
2022/03/01 07:48:42;;;;;;;25.10;13.63;;;0.70;99.90;;;;;;5072598;28;20196;-69
2022/03/01 07:51:10;;;;;;;20.60;12.38;;;0.80;99.90;;;;;;5073113;28;20250;-70
2022/03/01 07:53:37;;;;;;;19.85;12.65;;;0.80;99.90;;;;;;5055037;28;20199;-69
2022/03/01 07:56:04;;;;;;;20.80;11.38;;;0.90;99.90;;;;;;5072635;28;20196;-70
2022/03/01 07:58:30;;;;;;;17.48;11.30;;;1.00;99.90;;;;;;5072657;28;20220;-70
2022/03/01 08:00:57;;;;;;;23.88;12.25;;;1.10;99.90;;;;;;5073183;28;20192;-71
2022/03/01 08:03:23;;;;;;;24.42;12.93;;;1.30;99.90;;;;;;5072504;28;20204;-71
2022/03/01 08:05:49;;;;;;;17.95;11.43;;;1.40;99.90;;;;;;5072722;28;20563;-71
2022/03/01 08:08:16;;;;;;;20.80;10.70;;;1.50;99.90;;;;;;5072891;28;20204;-71
2022/03/01 08:10:42;;;;;;;17.98;10.73;;;1.50;99.90;;;;;;5073985;28;20238;-71
2022/03/01 08:13:09;;;;;;;19.10;12.18;;;1.70;99.90;;;;;;5076710;28;20524;-71
2022/03/01 08:15:37;;;;;;;16.98;11.48;;;1.70;99.90;;;;;;5076328;28;20203;-69
2022/03/01 08:18:04;;;;;;;15.23;11.18;;;1.80;99.90;;;;;;5076413;28;20628;-70
2022/03/01 08:20:31;;;;;;;20.60;12.57;;;1.80;99.90;;;;;;5076147;28;20567;-70
2022/03/01 08:22:58;;;;;;;15.40;11.38;;;1.80;99.90;;;;;;5075889;28;20265;-69
2022/03/01 08:25:25;;;;;;;18.17;12.10;;;1.90;99.90;;;;;;5075809;28;20191;-69
2022/03/01 08:27:52;;;;;;;16.30;11.65;;;2.10;99.90;;;;;;5075765;28;20640;-69
2022/03/01 08:30:18;;;;;;;17.17;11.95;;;2.20;99.90;;;;;;5075879;28;20210;-69
2022/03/01 08:32:46;;;;;;;15.63;11.38;;;2.30;99.90;;;;;;5076371;28;20199;-71
2022/03/01 08:35:12;;;;;;;16.20;11.57;;;2.40;99.90;;;;;;5075942;28;20204;-71
2022/03/01 08:37:39;;;;;;;19.98;12.93;;;2.40;99.90;;;;;;5075903;28;20220;-70
2022/03/01 08:40:06;;;;;;;17.73;11.95;;;2.60;99.90;;;;;;5075634;28;20204;-70
2022/03/01 08:42:33;;;;;;;14.77;11.10;;;2.60;99.90;;;;;;5075165;28;20196;-72
2022/03/01 08:44:59;;;;;;;16.80;12.38;;;2.60;99.90;;;;;;5076029;28;20192;-71
2022/03/01 08:47:26;;;;;;;20.13;12.13;;;2.70;99.90;;;;;;5075466;28;20694;-71
2022/03/01 08:49:53;;;;;;;15.88;12.15;;;2.80;99.90;;;;;;5075697;28;20204;-71
2022/03/01 08:52:19;;;;;;;19.77;12.20;;;2.90;99.90;;;;;;5074478;28;20204;-72
2022/03/01 08:54:46;;;;;;;22.73;13.60;;;3.00;99.90;;;;;;5075806;28;20200;-70
2022/03/01 08:57:14;;;;;;;16.30;13.45;;;3.10;99.90;;;;;;5075606;28;20603;-73
2022/03/01 08:59:41;;;;;;;14.60;13.10;;;3.30;99.90;;;;;;5073738;28;20679;-72
2022/03/01 09:02:10;;;;;;;19.15;12.73;;;3.40;99.90;;;;;;5075379;28;20203;-71
2022/03/01 09:04:39;;;;;;;19.05;11.68;;;3.40;99.90;;;;;;5075449;28;20635;-71
2022/03/01 09:07:06;;;;;;;15.50;11.90;;;3.40;99.90;;;;;;5075140;28;20220;-70
2022/03/01 09:09:32;;;;;;;15.80;12.45;;;3.60;99.90;;;;;;5075429;28;20546;-72
2022/03/01 09:11:59;;;;;;;16.67;11.70;;;3.60;99.90;;;;;;5075266;28;20208;-72
2022/03/01 09:14:28;;;;;;;16.60;12.07;;;3.70;99.90;;;;;;5075402;28;20207;-72
2022/03/01 09:16:54;;;;;;;16.55;12.35;;;3.80;99.90;;;;;;5074785;28;20219;-72
2022/03/01 09:19:20;;;;;;;15.73;13.65;;;3.80;99.90;;;;;;5073746;28;20652;-70
2022/03/01 09:21:47;;;;;;;15.18;12.48;;;3.80;99.90;;;;;;5074608;28;20203;-72
2022/03/01 09:24:13;;;;;;;17.80;12.45;;;3.80;99.90;;;;;;5074737;28;20559;-71
2022/03/01 09:26:40;;;;;;;17.50;12.88;;;4.10;99.90;;;;;;5074028;28;20207;-71
2022/03/01 09:29:07;;;;;;;24.17;12.40;;;4.10;99.90;;;;;;5074936;28;20276;-71
2022/03/01 09:31:33;;;;;;;16.52;12.10;;;4.20;99.90;;;;;;5074532;28;20246;-71
2022/03/01 09:34:00;;;;;;;15.25;11.52;;;4.10;99.90;;;;;;5075298;28;20507;-71
2022/03/01 09:36:26;;;;;;;16.85;12.52;;;4.30;99.90;;;;;;5073522;28;20226;-71
2022/03/01 09:38:53;;;;;;;20.85;13.23;;;4.50;99.90;;;;;;5074825;28;20220;-71
2022/03/01 09:41:19;;;;;;;16.20;12.13;;;4.60;99.90;;;;;;5074321;28;20666;-71
2022/03/01 09:43:46;;;;;;;17.90;12.57;;;4.60;99.90;;;;;;5074813;28;20226;-71
2022/03/01 09:46:12;;;;;;;18.02;13.35;;;4.80;99.90;;;;;;5074944;28;20207;-71
2022/03/01 09:48:39;;;;;;;16.98;12.30;;;4.80;99.90;;;;;;5073157;28;20199;-71
2022/03/01 09:51:06;;;;;;;14.48;12.60;;;4.80;99.90;;;;;;5074728;28;20208;-71
2022/03/01 09:53:34;;;;;;;22.08;13.35;;;4.90;99.90;;;;;;5072971;28;20204;-71
2022/03/01 09:56:02;;;;;;;17.00;12.60;;;5.00;99.90;;;;;;5074535;28;20207;-71
2022/03/01 09:58:29;;;;;;;19.80;12.23;;;5.00;99.90;;;;;;5074390;28;20230;-71
2022/03/01 10:00:55;;;;;;;12.70;11.40;;;5.20;99.90;;;;;;5073211;28;20200;-71
2022/03/01 10:03:22;;;;;;;15.55;12.57;;;5.30;99.90;;;;;;5074585;28;20211;-73
2022/03/01 10:05:49;;;;;;;15.48;12.38;;;5.40;99.90;;;;;;5073991;28;20243;-71
2022/03/01 10:08:24;;;;;;;16.40;14.23;;;5.40;99.90;;;;;;5074309;28;20200;-71
2022/03/01 10:10:53;;;;;;;17.42;13.40;;;5.40;99.90;;;;;;5074148;28;20198;-71
2022/03/01 10:13:28;;;;;;;13.02;11.52;;;5.40;99.90;;;;;;5073858;28;20203;-71
2022/03/01 10:16:08;;;;;;;16.55;12.55;;;5.60;99.90;;;;;;5074471;28;20241;-70
2022/03/01 10:18:38;;;;;;;14.45;12.55;;;5.80;99.90;;;;;;5073410;28;20211;-70
2022/03/01 10:21:13;;;;;;;16.55;12.23;;;5.60;99.90;;;;;;5073888;28;20221;-70
2022/03/01 10:23:46;;;;;;;13.07;11.68;;;5.50;99.90;;;;;;5073662;28;20184;-70
2022/03/01 10:26:22;;;;;;;15.88;13.25;;;5.90;99.90;;;;;;5073882;28;20191;-71
2022/03/01 10:28:49;;;;;;;15.05;12.73;;;5.70;99.90;;;;;;5073911;28;20180;-71
2022/03/01 10:31:19;;;;;;;17.13;13.27;;;5.70;99.90;;;;;;5073524;28;20557;-71
2022/03/01 10:34:20;;;;;;;14.68;12.88;;;5.80;99.90;;;;;;5073087;28;20211;-71
2022/03/01 10:36:49;;;;;;;13.02;11.80;;;5.80;99.90;;;;;;5071290;28;20203;-71
2022/03/01 10:39:20;;;;;;;15.20;11.93;;;6.10;99.90;;;;;;5073730;28;20200;-71
2022/03/01 10:41:51;;;;;;;15.35;13.25;;;6.20;99.90;;;;;;5074048;28;20226;-71
2022/03/01 10:44:26;;;;;;;14.80;12.70;;;6.10;99.90;;;;;;5073570;28;20637;-71
2022/03/01 10:46:55;;;;;;;13.25;11.88;;;6.00;99.90;;;;;;5072679;28;20655;-71
2022/03/01 10:49:32;;;;;;;13.82;12.43;;;6.20;99.90;;;;;;5073487;28;20668;-71
2022/03/01 10:52:04;;;;;;;13.93;12.50;;;6.10;99.90;;;;;;5073324;28;20192;-71
2022/03/01 10:54:34;;;;;;;14.82;13.30;;;6.20;99.90;;;;;;5073925;28;20199;-71
2022/03/01 10:57:09;;;;;;;13.93;12.52;;;6.60;99.90;;;;;;5073465;28;20560;-71
2022/03/01 10:59:39;;;;;;;14.30;12.93;;;6.70;99.90;;;;;;5072162;28;20195;-71
2022/03/01 11:02:06;;;;;;;16.98;13.70;;;6.70;99.90;;;;;;5073221;28;20200;-71
2022/03/01 11:04:33;;;;;;;14.88;12.68;;;6.70;99.90;;;;;;5072887;28;20712;-71
2022/03/01 11:07:02;;;;;;;15.43;13.90;;;6.80;99.90;;;;;;5072889;28;20585;-72
2022/03/01 11:09:31;;;;;;;13.25;12.05;;;6.90;99.90;;;;;;5073160;28;20192;-73
2022/03/01 11:11:59;;;;;;;21.73;13.35;;;7.40;99.90;;;;;;5073384;28;20203;-72
2022/03/01 11:14:35;;;;;;;16.75;15.05;;;7.70;99.90;;;;;;5073244;28;20613;-72
2022/03/01 11:17:23;;;;;;;13.65;12.25;;;8.10;99.90;;;;;;5073256;28;20184;-73
2022/03/01 11:20:00;;;;;;;14.40;12.93;;;8.50;99.90;;;;;;5072857;28;20184;-71
2022/03/01 11:22:38;;;;;;;15.90;13.07;;;8.90;99.90;;;;;;5072678;28;20202;-69
2022/03/01 11:25:05;;;;;;;14.75;13.45;;;9.40;99.90;;;;;;5072990;28;20245;-71
2022/03/01 11:27:46;;;;;;;17.40;14.55;;;9.50;99.90;;;;;;5073019;28;20196;-71
2022/03/01 11:30:14;;;;;;;16.17;13.85;;;9.40;99.90;;;;;;5073340;28;20527;-71
2022/03/01 11:32:43;;;;;;;16.30;14.75;;;9.50;99.90;;;;;;5073180;28;20598;-71
2022/03/01 11:35:22;;;;;;;14.35;13.05;;;9.70;99.90;;;;;;5072818;28;20258;-70
2022/03/01 11:38:08;;;;;;;14.55;13.15;;;9.70;99.90;;;;;;5073179;28;20219;-71
2022/03/01 11:40:44;;;;;;;15.85;14.30;;;9.10;99.90;;;;;;5072626;28;20200;-71
2022/03/01 11:43:21;;;;;;;16.15;14.57;;;9.10;99.90;;;;;;5072913;28;20192;-70
2022/03/01 11:45:54;;;;;;;15.63;14.18;;;10.00;99.90;;;;;;5076071;28;20539;-71
2022/03/01 11:48:24;;;;;;;16.92;14.57;;;10.40;99.90;;;;;;5076681;28;20188;-71
2022/03/01 11:50:58;;;;;;;15.02;13.68;;;10.10;99.90;;;;;;5076469;28;20211;-70
2022/03/01 11:53:29;;;;;;;15.57;13.98;;;10.00;99.90;;;;;;5076740;28;20629;-70
2022/03/01 11:55:58;;;;;;;16.40;14.70;;;10.50;99.90;;;;;;5077174;28;20199;-71
2022/03/01 11:58:26;;;;;;;16.17;14.57;;;10.80;99.90;;;;;;5076654;28;20220;-71
2022/03/01 12:00:53;;;;;;;16.23;14.57;;;10.50;99.90;;;;;;5076476;28;20664;-71
2022/03/01 12:03:25;;;;;;;16.07;14.40;;;10.60;99.90;;;;;;5076211;28;21175;-70
2022/03/01 12:05:53;;;;;;;15.60;13.67;;;10.80;99.90;;;;;;5076121;28;20628;-70
2022/03/01 12:08:20;;;;;;;15.73;14.20;;;10.00;99.90;;;;;;5076111;28;21168;-72
2022/03/01 12:11:04;;;;;;;15.25;13.85;;;9.70;99.90;;;;;;5076422;28;20630;-72
2022/03/01 12:13:44;;;;;;;14.20;13.10;;;9.10;99.90;;;;;;5076538;28;20199;-72
2022/03/01 12:16:13;;;;;;;17.27;13.82;;;9.00;99.90;;;;;;5076600;28;20207;-72
2022/03/01 12:18:41;;;;;;;17.55;13.15;;;8.90;99.90;;;;;;5076622;28;20215;-72
2022/03/01 12:21:12;;;;;;;14.80;13.48;;;8.80;99.90;;;;;;5077001;28;20199;-72
2022/03/01 12:23:41;;;;;;;15.25;13.85;;;8.70;99.90;;;;;;5076142;28;20184;-72
2022/03/01 12:26:12;;;;;;;14.95;12.90;;;8.50;99.90;;;;;;5076608;28;20229;-72
2022/03/01 12:28:44;;;;;;;14.50;13.10;;;8.50;99.90;;;;;;5076047;28;20184;-72
2022/03/01 12:31:13;;;;;;;15.55;14.15;;;9.00;99.90;;;;;;5076159;28;20237;-72
2022/03/01 12:34:02;;;;;;;15.07;13.82;;;9.60;99.90;;;;;;5076059;28;20199;-72
2022/03/01 12:36:32;;;;;;;15.73;14.27;;;9.80;99.90;;;;;;5076276;28;20192;-72
2022/03/01 12:39:11;;;;;;;16.38;14.90;;;10.80;99.90;;;;;;5076325;28;20212;-72
2022/03/01 12:41:39;;;;;;;16.07;14.50;;;10.90;99.90;;;;;;5075849;28;20199;-72